sensor_id;sensor_type;location;lat;lon;timestamp;pressure;altitude;pressure_sealevel;temperature;humidity
4981;BME280;2507;50.392;7.482;2023-07-31T00:01:50;100512.31;;;21.94;52.08
4981;BME280;2507;50.392;7.482;2023-07-31T00:04:15;100507.69;;;21.88;52.68
4981;BME280;2507;50.392;7.482;2023-07-31T00:06:41;100504.09;;;21.81;53.32
4981;BME280;2507;50.392;7.482;2023-07-31T00:09:06;100500.78;;;21.79;53.75
4981;BME280;2507;50.392;7.482;2023-07-31T00:11:31;100485.16;;;21.68;54.23
4981;BME280;2507;50.392;7.482;2023-07-31T00:13:57;100471.25;;;21.58;54.92
4981;BME280;2507;50.392;7.482;2023-07-31T00:16:23;100460.38;;;21.45;55.37
4981;BME280;2507;50.392;7.482;2023-07-31T00:18:48;100456.66;;;21.46;55.54
4981;BME280;2507;50.392;7.482;2023-07-31T00:21:13;100463.31;;;21.50;54.87
4981;BME280;2507;50.392;7.482;2023-07-31T00:23:38;100463.97;;;21.52;55.00
4981;BME280;2507;50.392;7.482;2023-07-31T00:26:04;100462.75;;;21.40;55.46
4981;BME280;2507;50.392;7.482;2023-07-31T00:28:29;100466.53;;;21.45;55.19
4981;BME280;2507;50.392;7.482;2023-07-31T00:30:54;100454.19;;;21.44;55.57
4981;BME280;2507;50.392;7.482;2023-07-31T00:33:20;100458.63;;;21.52;55.06
4981;BME280;2507;50.392;7.482;2023-07-31T00:35:45;100461.28;;;21.52;55.21
4981;BME280;2507;50.392;7.482;2023-07-31T00:38:10;100449.69;;;21.45;55.31
4981;BME280;2507;50.392;7.482;2023-07-31T00:40:36;100451.97;;;21.48;54.98
4981;BME280;2507;50.392;7.482;2023-07-31T00:43:02;100442.31;;;21.47;55.17
4981;BME280;2507;50.392;7.482;2023-07-31T00:45:28;100447.66;;;21.47;55.59
4981;BME280;2507;50.392;7.482;2023-07-31T00:47:54;100454.75;;;21.40;55.50
4981;BME280;2507;50.392;7.482;2023-07-31T00:50:19;100455.94;;;21.37;55.94
4981;BME280;2507;50.392;7.482;2023-07-31T00:52:44;100453.50;;;21.27;56.28
4981;BME280;2507;50.392;7.482;2023-07-31T00:55:10;100456.03;;;21.06;56.52
4981;BME280;2507;50.392;7.482;2023-07-31T00:57:36;100460.63;;;21.35;55.91
4981;BME280;2507;50.392;7.482;2023-07-31T01:00:02;100453.25;;;21.37;56.21
4981;BME280;2507;50.392;7.482;2023-07-31T01:02:28;100462.38;;;21.43;56.25
4981;BME280;2507;50.392;7.482;2023-07-31T01:04:54;100457.97;;;21.50;56.17
4981;BME280;2507;50.392;7.482;2023-07-31T01:07:27;100452.25;;;21.38;56.09
4981;BME280;2507;50.392;7.482;2023-07-31T01:10:41;100437.44;;;21.65;55.63
4981;BME280;2507;50.392;7.482;2023-07-31T01:12:48;100439.31;;;21.79;55.48
4981;BME280;2507;50.392;7.482;2023-07-31T01:15:15;100439.66;;;21.61;55.96
4981;BME280;2507;50.392;7.482;2023-07-31T01:17:42;100444.28;;;21.53;55.85
4981;BME280;2507;50.392;7.482;2023-07-31T01:20:12;100452.41;;;21.37;56.86
4981;BME280;2507;50.392;7.482;2023-07-31T01:25:54;100456.84;;;21.44;56.47
4981;BME280;2507;50.392;7.482;2023-07-31T01:28:30;100448.09;;;21.36;57.07
4981;BME280;2507;50.392;7.482;2023-07-31T01:30:59;100456.50;;;21.33;57.31
4981;BME280;2507;50.392;7.482;2023-07-31T01:33:27;100453.88;;;21.24;57.73
4981;BME280;2507;50.392;7.482;2023-07-31T01:35:53;100462.91;;;21.23;57.88
4981;BME280;2507;50.392;7.482;2023-07-31T01:38:22;100463.69;;;21.47;57.00
4981;BME280;2507;50.392;7.482;2023-07-31T01:40:51;100456.03;;;21.44;57.15
4981;BME280;2507;50.392;7.482;2023-07-31T01:43:17;100442.41;;;21.53;57.09
4981;BME280;2507;50.392;7.482;2023-07-31T01:45:43;100430.25;;;21.51;56.78
4981;BME280;2507;50.392;7.482;2023-07-31T01:48:08;100431.06;;;21.37;57.39
4981;BME280;2507;50.392;7.482;2023-07-31T01:50:33;100436.50;;;21.43;56.76
4981;BME280;2507;50.392;7.482;2023-07-31T01:52:58;100427.38;;;21.38;57.14
4981;BME280;2507;50.392;7.482;2023-07-31T01:55:24;100432.00;;;21.44;56.78
4981;BME280;2507;50.392;7.482;2023-07-31T01:57:49;100436.06;;;21.40;57.02
4981;BME280;2507;50.392;7.482;2023-07-31T02:00:14;100444.75;;;21.19;57.49
4981;BME280;2507;50.392;7.482;2023-07-31T02:02:40;100441.56;;;21.23;57.23
4981;BME280;2507;50.392;7.482;2023-07-31T02:05:05;100439.63;;;21.32;57.13
4981;BME280;2507;50.392;7.482;2023-07-31T02:07:31;100434.53;;;21.22;57.56
4981;BME280;2507;50.392;7.482;2023-07-31T02:09:56;100427.00;;;21.26;57.26
4981;BME280;2507;50.392;7.482;2023-07-31T02:12:21;100426.75;;;21.36;57.03
4981;BME280;2507;50.392;7.482;2023-07-31T02:14:46;100420.38;;;21.37;56.75
4981;BME280;2507;50.392;7.482;2023-07-31T02:17:12;100419.09;;;21.33;57.37
4981;BME280;2507;50.392;7.482;2023-07-31T02:19:37;100421.00;;;21.24;57.63
4981;BME280;2507;50.392;7.482;2023-07-31T02:22:02;100430.50;;;21.26;57.44
4981;BME280;2507;50.392;7.482;2023-07-31T02:24:28;100423.47;;;21.25;57.38
4981;BME280;2507;50.392;7.482;2023-07-31T02:26:53;100418.78;;;21.13;58.03
4981;BME280;2507;50.392;7.482;2023-07-31T02:29:18;100414.97;;;21.07;57.77
4981;BME280;2507;50.392;7.482;2023-07-31T02:31:43;100410.00;;;21.04;58.39
4981;BME280;2507;50.392;7.482;2023-07-31T02:34:09;100408.03;;;20.98;58.76
4981;BME280;2507;50.392;7.482;2023-07-31T02:36:34;100415.53;;;21.03;58.58
4981;BME280;2507;50.392;7.482;2023-07-31T02:38:59;100422.38;;;21.05;58.64
4981;BME280;2507;50.392;7.482;2023-07-31T02:41:24;100413.72;;;21.03;59.02
4981;BME280;2507;50.392;7.482;2023-07-31T02:43:50;100416.00;;;21.06;58.92
4981;BME280;2507;50.392;7.482;2023-07-31T02:46:15;100407.16;;;21.06;58.98
4981;BME280;2507;50.392;7.482;2023-07-31T02:48:40;100406.63;;;21.10;59.11
4981;BME280;2507;50.392;7.482;2023-07-31T02:51:05;100405.97;;;21.08;59.39
4981;BME280;2507;50.392;7.482;2023-07-31T02:53:31;100403.97;;;21.10;59.51
4981;BME280;2507;50.392;7.482;2023-07-31T02:55:56;100413.53;;;21.05;60.00
4981;BME280;2507;50.392;7.482;2023-07-31T02:58:21;100417.94;;;20.90;60.55
4981;BME280;2507;50.392;7.482;2023-07-31T03:00:47;100410.50;;;20.85;60.88
4981;BME280;2507;50.392;7.482;2023-07-31T03:03:12;100413.16;;;20.85;61.03
4981;BME280;2507;50.392;7.482;2023-07-31T03:05:37;100412.31;;;20.85;61.40
4981;BME280;2507;50.392;7.482;2023-07-31T03:08:03;100410.41;;;20.93;60.90
4981;BME280;2507;50.392;7.482;2023-07-31T03:10:29;100402.59;;;20.92;61.20
4981;BME280;2507;50.392;7.482;2023-07-31T03:12:54;100402.41;;;20.93;61.66
4981;BME280;2507;50.392;7.482;2023-07-31T03:15:19;100406.91;;;20.93;61.59
4981;BME280;2507;50.392;7.482;2023-07-31T03:17:44;100402.88;;;20.97;61.38
4981;BME280;2507;50.392;7.482;2023-07-31T03:20:10;100402.69;;;20.98;61.53
4981;BME280;2507;50.392;7.482;2023-07-31T03:22:35;100408.22;;;20.97;61.77
4981;BME280;2507;50.392;7.482;2023-07-31T03:25:02;100412.25;;;20.93;62.29
4981;BME280;2507;50.392;7.482;2023-07-31T03:27:27;100407.94;;;20.92;62.03
4981;BME280;2507;50.392;7.482;2023-07-31T03:29:53;100401.09;;;20.89;62.74
4981;BME280;2507;50.392;7.482;2023-07-31T03:32:18;100403.47;;;20.84;62.82
4981;BME280;2507;50.392;7.482;2023-07-31T03:34:43;100410.97;;;20.89;63.13
4981;BME280;2507;50.392;7.482;2023-07-31T03:37:09;100396.88;;;20.95;62.98
4981;BME280;2507;50.392;7.482;2023-07-31T03:39:35;100395.47;;;20.84;63.50
4981;BME280;2507;50.392;7.482;2023-07-31T03:42:00;100402.13;;;20.66;64.03
4981;BME280;2507;50.392;7.482;2023-07-31T03:44:25;100402.44;;;20.71;64.38
4981;BME280;2507;50.392;7.482;2023-07-31T03:46:50;100388.03;;;20.57;64.77
4981;BME280;2507;50.392;7.482;2023-07-31T03:49:16;100384.38;;;20.58;64.67
4981;BME280;2507;50.392;7.482;2023-07-31T03:51:41;100372.56;;;20.53;65.26
4981;BME280;2507;50.392;7.482;2023-07-31T03:54:07;100376.13;;;20.45;65.56
4981;BME280;2507;50.392;7.482;2023-07-31T03:56:33;100361.53;;;20.33;66.25
4981;BME280;2507;50.392;7.482;2023-07-31T03:58:58;100364.19;;;20.33;66.43
4981;BME280;2507;50.392;7.482;2023-07-31T04:01:23;100352.88;;;20.31;66.67
4981;BME280;2507;50.392;7.482;2023-07-31T04:03:48;100358.06;;;20.33;66.89
4981;BME280;2507;50.392;7.482;2023-07-31T04:06:14;100358.06;;;20.33;67.05
4981;BME280;2507;50.392;7.482;2023-07-31T04:08:43;100364.38;;;20.31;66.81
4981;BME280;2507;50.392;7.482;2023-07-31T04:11:08;100367.69;;;20.33;66.85
4981;BME280;2507;50.392;7.482;2023-07-31T04:13:33;100355.13;;;20.42;66.65
4981;BME280;2507;50.392;7.482;2023-07-31T04:15:59;100365.78;;;20.42;66.67
4981;BME280;2507;50.392;7.482;2023-07-31T04:18:25;100364.16;;;20.41;66.66
4981;BME280;2507;50.392;7.482;2023-07-31T04:20:50;100362.53;;;20.32;67.37
4981;BME280;2507;50.392;7.482;2023-07-31T04:23:15;100366.84;;;20.33;67.13
4981;BME280;2507;50.392;7.482;2023-07-31T04:25:41;100364.84;;;20.35;67.02
4981;BME280;2507;50.392;7.482;2023-07-31T04:28:06;100360.00;;;20.39;67.01
4981;BME280;2507;50.392;7.482;2023-07-31T04:30:32;100366.16;;;20.39;66.89
4981;BME280;2507;50.392;7.482;2023-07-31T04:32:58;100366.81;;;20.41;67.23
4981;BME280;2507;50.392;7.482;2023-07-31T04:35:23;100369.41;;;20.49;66.99
4981;BME280;2507;50.392;7.482;2023-07-31T04:37:48;100362.00;;;20.59;66.76
4981;BME280;2507;50.392;7.482;2023-07-31T04:40:15;100362.72;;;20.53;67.23
4981;BME280;2507;50.392;7.482;2023-07-31T04:42:40;100359.53;;;20.58;67.19
4981;BME280;2507;50.392;7.482;2023-07-31T04:45:06;100366.03;;;20.55;67.08
4981;BME280;2507;50.392;7.482;2023-07-31T04:47:31;100366.22;;;20.54;67.49
4981;BME280;2507;50.392;7.482;2023-07-31T04:49:56;100361.19;;;20.59;67.43
4981;BME280;2507;50.392;7.482;2023-07-31T04:52:21;100361.34;;;20.57;67.63
4981;BME280;2507;50.392;7.482;2023-07-31T04:54:47;100352.59;;;20.49;67.85
4981;BME280;2507;50.392;7.482;2023-07-31T04:57:12;100358.78;;;20.64;67.22
4981;BME280;2507;50.392;7.482;2023-07-31T04:59:37;100365.25;;;20.69;67.06
4981;BME280;2507;50.392;7.482;2023-07-31T05:02:03;100370.94;;;20.66;67.13
4981;BME280;2507;50.392;7.482;2023-07-31T05:04:28;100377.63;;;20.85;66.07
4981;BME280;2507;50.392;7.482;2023-07-31T05:06:53;100358.31;;;20.83;66.74
4981;BME280;2507;50.392;7.482;2023-07-31T05:09:18;100356.75;;;20.88;66.24
4981;BME280;2507;50.392;7.482;2023-07-31T05:11:44;100350.13;;;20.84;66.09
4981;BME280;2507;50.392;7.482;2023-07-31T05:14:09;100355.59;;;20.91;66.11
4981;BME280;2507;50.392;7.482;2023-07-31T05:16:34;100356.75;;;20.88;65.93
4981;BME280;2507;50.392;7.482;2023-07-31T05:19:00;100365.28;;;20.84;66.60
4981;BME280;2507;50.392;7.482;2023-07-31T05:21:25;100361.91;;;20.90;66.60
4981;BME280;2507;50.392;7.482;2023-07-31T05:23:50;100355.94;;;20.88;66.45
4981;BME280;2507;50.392;7.482;2023-07-31T05:26:15;100344.78;;;20.84;66.24
4981;BME280;2507;50.392;7.482;2023-07-31T05:28:41;100341.22;;;20.92;66.06
4981;BME280;2507;50.392;7.482;2023-07-31T05:31:06;100350.16;;;20.99;65.79
4981;BME280;2507;50.392;7.482;2023-07-31T05:33:32;100347.63;;;21.05;65.96
4981;BME280;2507;50.392;7.482;2023-07-31T05:35:57;100345.78;;;21.06;65.42
4981;BME280;2507;50.392;7.482;2023-07-31T05:38:23;100341.28;;;21.06;65.48
4981;BME280;2507;50.392;7.482;2023-07-31T05:40:49;100339.81;;;21.18;64.77
4981;BME280;2507;50.392;7.482;2023-07-31T05:43:14;100337.34;;;21.31;64.12
4981;BME280;2507;50.392;7.482;2023-07-31T05:45:40;100332.09;;;21.38;63.96
4981;BME280;2507;50.392;7.482;2023-07-31T05:48:05;100335.88;;;21.44;63.60
4981;BME280;2507;50.392;7.482;2023-07-31T05:50:31;100337.34;;;21.46;63.40
4981;BME280;2507;50.392;7.482;2023-07-31T05:52:56;100334.75;;;21.53;63.90
4981;BME280;2507;50.392;7.482;2023-07-31T05:55:22;100331.06;;;21.54;63.28
4981;BME280;2507;50.392;7.482;2023-07-31T05:57:47;100328.19;;;21.70;62.99
4981;BME280;2507;50.392;7.482;2023-07-31T06:00:13;100324.06;;;21.82;63.02
4981;BME280;2507;50.392;7.482;2023-07-31T06:02:38;100325.81;;;22.10;61.81
4981;BME280;2507;50.392;7.482;2023-07-31T06:05:04;100328.25;;;22.26;61.69
4981;BME280;2507;50.392;7.482;2023-07-31T06:07:31;100323.50;;;22.43;61.05
4981;BME280;2507;50.392;7.482;2023-07-31T06:09:56;100326.16;;;22.64;60.61
4981;BME280;2507;50.392;7.482;2023-07-31T06:12:27;100317.09;;;22.86;58.69
4981;BME280;2507;50.392;7.482;2023-07-31T06:14:52;100317.59;;;22.96;58.64
4981;BME280;2507;50.392;7.482;2023-07-31T06:17:17;100311.66;;;23.07;57.88
4981;BME280;2507;50.392;7.482;2023-07-31T06:19:43;100319.63;;;22.94;58.58
4981;BME280;2507;50.392;7.482;2023-07-31T06:22:08;100313.00;;;22.90;58.74
4981;BME280;2507;50.392;7.482;2023-07-31T06:24:34;100319.13;;;22.84;58.49
4981;BME280;2507;50.392;7.482;2023-07-31T06:26:59;100321.66;;;22.92;58.44
4981;BME280;2507;50.392;7.482;2023-07-31T06:29:24;100319.22;;;22.97;57.70
4981;BME280;2507;50.392;7.482;2023-07-31T06:31:49;100313.38;;;22.87;57.65
4981;BME280;2507;50.392;7.482;2023-07-31T06:34:15;100309.75;;;22.67;57.98
4981;BME280;2507;50.392;7.482;2023-07-31T06:36:40;100306.75;;;22.56;58.76
4981;BME280;2507;50.392;7.482;2023-07-31T06:39:05;100308.44;;;22.42;59.29
4981;BME280;2507;50.392;7.482;2023-07-31T06:41:31;100302.00;;;22.37;59.70
4981;BME280;2507;50.392;7.482;2023-07-31T06:43:56;100319.84;;;22.51;59.96
4981;BME280;2507;50.392;7.482;2023-07-31T06:46:21;100317.25;;;22.57;59.66
4981;BME280;2507;50.392;7.482;2023-07-31T06:48:46;100306.00;;;22.62;58.88
4981;BME280;2507;50.392;7.482;2023-07-31T06:51:12;100302.47;;;22.61;58.45
4981;BME280;2507;50.392;7.482;2023-07-31T06:53:37;100307.94;;;22.32;58.79
4981;BME280;2507;50.392;7.482;2023-07-31T06:56:02;100304.13;;;22.20;59.20
4981;BME280;2507;50.392;7.482;2023-07-31T06:58:28;100301.13;;;22.08;59.12
4981;BME280;2507;50.392;7.482;2023-07-31T07:00:53;100297.72;;;22.14;58.70
4981;BME280;2507;50.392;7.482;2023-07-31T07:03:18;100291.63;;;22.06;59.15
4981;BME280;2507;50.392;7.482;2023-07-31T07:05:44;100294.69;;;22.03;58.61
4981;BME280;2507;50.392;7.482;2023-07-31T07:08:09;100295.97;;;22.07;58.30
4981;BME280;2507;50.392;7.482;2023-07-31T07:10:34;100298.78;;;22.20;58.12
4981;BME280;2507;50.392;7.482;2023-07-31T07:13:00;100306.16;;;22.39;57.42
4981;BME280;2507;50.392;7.482;2023-07-31T07:15:25;100299.94;;;22.32;57.01
4981;BME280;2507;50.392;7.482;2023-07-31T07:17:50;100295.97;;;22.28;57.33
4981;BME280;2507;50.392;7.482;2023-07-31T07:20:16;100295.78;;;22.29;56.93
4981;BME280;2507;50.392;7.482;2023-07-31T07:22:41;100291.81;;;22.47;56.92
4981;BME280;2507;50.392;7.482;2023-07-31T07:25:09;100290.44;;;22.78;56.06
4981;BME280;2507;50.392;7.482;2023-07-31T07:27:34;100289.69;;;22.84;55.07
4981;BME280;2507;50.392;7.482;2023-07-31T07:30:00;100280.03;;;23.17;54.39
4981;BME280;2507;50.392;7.482;2023-07-31T07:32:25;100275.84;;;23.08;54.16
4981;BME280;2507;50.392;7.482;2023-07-31T07:34:51;100280.72;;;22.98;54.25
4981;BME280;2507;50.392;7.482;2023-07-31T07:37:16;100274.59;;;23.11;53.84
4981;BME280;2507;50.392;7.482;2023-07-31T07:39:42;100263.09;;;23.10;53.93
4981;BME280;2507;50.392;7.482;2023-07-31T07:42:07;100253.56;;;23.01;54.95
4981;BME280;2507;50.392;7.482;2023-07-31T07:44:32;100255.06;;;23.10;55.03
4981;BME280;2507;50.392;7.482;2023-07-31T07:46:57;100251.75;;;23.08;55.38
4981;BME280;2507;50.392;7.482;2023-07-31T07:49:23;100258.72;;;23.03;55.69
4981;BME280;2507;50.392;7.482;2023-07-31T07:51:48;100257.03;;;23.29;54.41
4981;BME280;2507;50.392;7.482;2023-07-31T07:54:14;100260.72;;;23.28;54.30
4981;BME280;2507;50.392;7.482;2023-07-31T07:56:42;100248.19;;;23.29;54.27
4981;BME280;2507;50.392;7.482;2023-07-31T07:59:07;100253.97;;;23.33;54.71
4981;BME280;2507;50.392;7.482;2023-07-31T08:01:32;100254.06;;;23.18;54.60
4981;BME280;2507;50.392;7.482;2023-07-31T08:03:58;100257.69;;;23.04;54.40
4981;BME280;2507;50.392;7.482;2023-07-31T08:06:23;100258.16;;;22.80;56.85
4981;BME280;2507;50.392;7.482;2023-07-31T08:08:49;100258.81;;;22.82;58.43
4981;BME280;2507;50.392;7.482;2023-07-31T08:11:14;100253.78;;;22.72;58.99
4981;BME280;2507;50.392;7.482;2023-07-31T08:13:40;100254.22;;;22.76;58.88
4981;BME280;2507;50.392;7.482;2023-07-31T08:16:05;100257.13;;;22.81;59.10
4981;BME280;2507;50.392;7.482;2023-07-31T08:18:31;100264.22;;;22.95;58.93
4981;BME280;2507;50.392;7.482;2023-07-31T08:20:57;100262.63;;;22.73;59.80
4981;BME280;2507;50.392;7.482;2023-07-31T08:23:22;100254.69;;;22.37;61.67
4981;BME280;2507;50.392;7.482;2023-07-31T08:25:48;100251.53;;;22.27;63.39
4981;BME280;2507;50.392;7.482;2023-07-31T08:28:14;100247.31;;;22.39;62.26
4981;BME280;2507;50.392;7.482;2023-07-31T08:30:40;100243.81;;;22.39;61.59
4981;BME280;2507;50.392;7.482;2023-07-31T08:33:06;100243.59;;;22.40;61.50
4981;BME280;2507;50.392;7.482;2023-07-31T08:35:32;100242.25;;;22.72;60.30
4981;BME280;2507;50.392;7.482;2023-07-31T08:37:57;100252.28;;;22.63;59.59
4981;BME280;2507;50.392;7.482;2023-07-31T08:40:22;100236.16;;;22.84;60.05
4981;BME280;2507;50.392;7.482;2023-07-31T08:42:49;100250.66;;;22.96;60.47
4981;BME280;2507;50.392;7.482;2023-07-31T08:45:18;100237.97;;;23.11;59.79
4981;BME280;2507;50.392;7.482;2023-07-31T08:47:45;100228.91;;;23.12;59.91
4981;BME280;2507;50.392;7.482;2023-07-31T08:50:16;100233.22;;;23.13;60.64
4981;BME280;2507;50.392;7.482;2023-07-31T08:52:42;100232.81;;;23.10;61.38
4981;BME280;2507;50.392;7.482;2023-07-31T08:55:08;100234.00;;;23.07;60.54
4981;BME280;2507;50.392;7.482;2023-07-31T08:57:35;100232.81;;;23.16;61.60
4981;BME280;2507;50.392;7.482;2023-07-31T09:00:02;100232.78;;;23.03;60.88
4981;BME280;2507;50.392;7.482;2023-07-31T09:02:33;100233.34;;;22.92;61.71
4981;BME280;2507;50.392;7.482;2023-07-31T09:05:00;100226.69;;;22.82;60.54
4981;BME280;2507;50.392;7.482;2023-07-31T09:07:25;100229.28;;;23.09;60.01
4981;BME280;2507;50.392;7.482;2023-07-31T09:09:50;100227.25;;;23.11;58.79
4981;BME280;2507;50.392;7.482;2023-07-31T09:12:16;100227.44;;;23.10;58.72
4981;BME280;2507;50.392;7.482;2023-07-31T09:14:42;100222.09;;;23.10;58.43
4981;BME280;2507;50.392;7.482;2023-07-31T09:17:08;100227.25;;;23.11;57.95
4981;BME280;2507;50.392;7.482;2023-07-31T09:19:35;100223.72;;;23.04;57.62
4981;BME280;2507;50.392;7.482;2023-07-31T09:22:06;100213.25;;;22.75;57.54
4981;BME280;2507;50.392;7.482;2023-07-31T09:24:33;100221.97;;;22.56;58.39
4981;BME280;2507;50.392;7.482;2023-07-31T09:27:00;100209.72;;;22.68;57.51
4981;BME280;2507;50.392;7.482;2023-07-31T09:29:27;100196.06;;;22.91;56.91
4981;BME280;2507;50.392;7.482;2023-07-31T09:31:54;100200.09;;;23.21;55.99
4981;BME280;2507;50.392;7.482;2023-07-31T09:34:20;100200.00;;;23.36;55.92
4981;BME280;2507;50.392;7.482;2023-07-31T09:36:48;100195.09;;;23.52;55.78
4981;BME280;2507;50.392;7.482;2023-07-31T09:39:15;100182.75;;;23.58;54.57
4981;BME280;2507;50.392;7.482;2023-07-31T09:41:47;100181.28;;;23.49;55.08
4981;BME280;2507;50.392;7.482;2023-07-31T09:44:12;100172.63;;;23.47;54.62
4981;BME280;2507;50.392;7.482;2023-07-31T09:46:38;100178.81;;;23.54;54.88
4981;BME280;2507;50.392;7.482;2023-07-31T09:49:08;100162.38;;;23.76;54.33
4981;BME280;2507;50.392;7.482;2023-07-31T09:51:41;100161.97;;;23.79;53.41
4981;BME280;2507;50.392;7.482;2023-07-31T09:54:15;100153.72;;;23.94;53.41
4981;BME280;2507;50.392;7.482;2023-07-31T09:56:48;100150.22;;;24.00;53.31
4981;BME280;2507;50.392;7.482;2023-07-31T09:59:19;100156.00;;;23.97;52.99
4981;BME280;2507;50.392;7.482;2023-07-31T10:01:45;100152.25;;;23.72;52.49
4981;BME280;2507;50.392;7.482;2023-07-31T10:04:12;100155.34;;;23.62;52.59
4981;BME280;2507;50.392;7.482;2023-07-31T10:06:40;100159.09;;;23.74;53.61
4981;BME280;2507;50.392;7.482;2023-07-31T10:09:07;100154.72;;;23.73;52.43
4981;BME280;2507;50.392;7.482;2023-07-31T10:11:56;100147.94;;;23.84;52.59
4981;BME280;2507;50.392;7.482;2023-07-31T10:14:23;100153.72;;;23.87;52.42
4981;BME280;2507;50.392;7.482;2023-07-31T10:16:49;100155.59;;;24.13;53.03
4981;BME280;2507;50.392;7.482;2023-07-31T10:19:14;100152.72;;;24.47;51.04
4981;BME280;2507;50.392;7.482;2023-07-31T10:21:41;100148.94;;;24.55;50.58
4981;BME280;2507;50.392;7.482;2023-07-31T10:24:07;100152.44;;;24.68;50.24
4981;BME280;2507;50.392;7.482;2023-07-31T10:26:35;100146.69;;;24.58;49.91
4981;BME280;2507;50.392;7.482;2023-07-31T10:29:03;100148.38;;;24.33;51.04
4981;BME280;2507;50.392;7.482;2023-07-31T10:31:28;100140.75;;;24.30;51.08
4981;BME280;2507;50.392;7.482;2023-07-31T10:33:56;100139.28;;;24.27;49.95
4981;BME280;2507;50.392;7.482;2023-07-31T10:36:23;100144.47;;;24.22;50.59
4981;BME280;2507;50.392;7.482;2023-07-31T10:38:51;100132.31;;;24.07;50.65
4981;BME280;2507;50.392;7.482;2023-07-31T10:41:16;100132.72;;;23.91;50.61
4981;BME280;2507;50.392;7.482;2023-07-31T10:43:42;100133.50;;;23.85;49.99
4981;BME280;2507;50.392;7.482;2023-07-31T10:46:16;100123.81;;;23.84;50.02
4981;BME280;2507;50.392;7.482;2023-07-31T10:48:42;100127.53;;;24.22;50.01
4981;BME280;2507;50.392;7.482;2023-07-31T10:51:08;100108.28;;;24.51;48.17
4981;BME280;2507;50.392;7.482;2023-07-31T10:53:40;100107.88;;;24.48;48.23
4981;BME280;2507;50.392;7.482;2023-07-31T10:56:09;100124.00;;;24.48;48.56
4981;BME280;2507;50.392;7.482;2023-07-31T10:58:38;100112.56;;;24.78;48.39
4981;BME280;2507;50.392;7.482;2023-07-31T11:01:04;100114.44;;;25.22;48.15
4981;BME280;2507;50.392;7.482;2023-07-31T11:03:46;100115.19;;;25.73;46.44
4981;BME280;2507;50.392;7.482;2023-07-31T11:06:13;100115.56;;;26.26;45.03
4981;BME280;2507;50.392;7.482;2023-07-31T11:08:47;100118.13;;;26.21;45.41
4981;BME280;2507;50.392;7.482;2023-07-31T11:11:14;100113.00;;;26.13;44.66
4981;BME280;2507;50.392;7.482;2023-07-31T11:16:10;100126.97;;;26.71;44.51
4981;BME280;2507;50.392;7.482;2023-07-31T11:18:38;100110.69;;;26.59;44.42
4981;BME280;2507;50.392;7.482;2023-07-31T11:21:04;100129.22;;;26.49;44.67
4981;BME280;2507;50.392;7.482;2023-07-31T11:23:30;100124.06;;;26.48;44.48
4981;BME280;2507;50.392;7.482;2023-07-31T11:25:59;100125.13;;;26.22;44.73
4981;BME280;2507;50.392;7.482;2023-07-31T11:28:24;100122.84;;;25.45;45.72
4981;BME280;2507;50.392;7.482;2023-07-31T11:30:49;100126.31;;;25.46;47.03
4981;BME280;2507;50.392;7.482;2023-07-31T11:33:15;100133.91;;;25.86;46.51
4981;BME280;2507;50.392;7.482;2023-07-31T11:35:43;100126.69;;;25.80;46.11
4981;BME280;2507;50.392;7.482;2023-07-31T11:38:11;100119.34;;;25.69;46.66
4981;BME280;2507;50.392;7.482;2023-07-31T11:40:43;100116.44;;;25.71;46.07
4981;BME280;2507;50.392;7.482;2023-07-31T11:43:08;100116.09;;;25.61;47.26
4981;BME280;2507;50.392;7.482;2023-07-31T11:45:34;100112.16;;;25.63;47.22
4981;BME280;2507;50.392;7.482;2023-07-31T11:48:00;100111.94;;;25.89;47.73
4981;BME280;2507;50.392;7.482;2023-07-31T11:50:26;100115.91;;;26.11;45.20
4981;BME280;2507;50.392;7.482;2023-07-31T11:53:01;100108.22;;;25.90;46.21
4981;BME280;2507;50.392;7.482;2023-07-31T11:55:28;100097.56;;;26.02;47.00
4981;BME280;2507;50.392;7.482;2023-07-31T11:57:56;100082.97;;;26.16;45.98
4981;BME280;2507;50.392;7.482;2023-07-31T12:00:22;100097.50;;;25.84;46.99
4981;BME280;2507;50.392;7.482;2023-07-31T12:02:48;100111.94;;;25.65;47.02
4981;BME280;2507;50.392;7.482;2023-07-31T12:05:13;100096.09;;;25.81;47.37
4981;BME280;2507;50.392;7.482;2023-07-31T12:07:46;100096.06;;;26.12;46.53
4981;BME280;2507;50.392;7.482;2023-07-31T12:10:29;100093.63;;;26.04;45.82
4981;BME280;2507;50.392;7.482;2023-07-31T12:13:11;100106.44;;;26.02;46.48
4981;BME280;2507;50.392;7.482;2023-07-31T12:18:10;100101.25;;;26.07;47.34
4981;BME280;2507;50.392;7.482;2023-07-31T12:20:43;100094.72;;;26.21;46.88
4981;BME280;2507;50.392;7.482;2023-07-31T12:23:20;100098.38;;;26.09;46.57
4981;BME280;2507;50.392;7.482;2023-07-31T12:26:06;100091.28;;;26.14;46.36
4981;BME280;2507;50.392;7.482;2023-07-31T12:28:41;100096.25;;;26.11;46.42
4981;BME280;2507;50.392;7.482;2023-07-31T12:31:09;100086.72;;;26.15;46.81
4981;BME280;2507;50.392;7.482;2023-07-31T12:33:35;100080.59;;;26.44;45.93
4981;BME280;2507;50.392;7.482;2023-07-31T12:36:03;100078.22;;;26.54;45.05
4981;BME280;2507;50.392;7.482;2023-07-31T12:38:29;100085.19;;;26.44;45.70
4981;BME280;2507;50.392;7.482;2023-07-31T12:40:55;100077.16;;;26.55;45.61
4981;BME280;2507;50.392;7.482;2023-07-31T12:43:20;100082.25;;;26.63;45.16
4981;BME280;2507;50.392;7.482;2023-07-31T12:45:45;100085.38;;;26.24;45.90
4981;BME280;2507;50.392;7.482;2023-07-31T12:48:12;100081.56;;;25.89;46.09
4981;BME280;2507;50.392;7.482;2023-07-31T12:50:38;100076.19;;;25.89;46.86
4981;BME280;2507;50.392;7.482;2023-07-31T12:53:04;100076.19;;;25.89;46.59
4981;BME280;2507;50.392;7.482;2023-07-31T12:55:30;100079.78;;;25.52;47.90
4981;BME280;2507;50.392;7.482;2023-07-31T12:57:55;100087.13;;;25.63;47.67
4981;BME280;2507;50.392;7.482;2023-07-31T13:00:21;100093.94;;;25.27;48.40
4981;BME280;2507;50.392;7.482;2023-07-31T13:02:46;100090.75;;;25.12;48.99
4981;BME280;2507;50.392;7.482;2023-07-31T13:05:11;100084.25;;;24.89;49.51
4981;BME280;2507;50.392;7.482;2023-07-31T13:07:38;100076.03;;;24.77;49.79
4981;BME280;2507;50.392;7.482;2023-07-31T13:10:04;100079.78;;;24.63;50.44
4981;BME280;2507;50.392;7.482;2023-07-31T13:12:29;100093.81;;;24.72;50.74
4981;BME280;2507;50.392;7.482;2023-07-31T13:14:54;100093.44;;;24.42;51.11